createdAt,value
2019-05-10T00:00:17.542Z,94573.00
2019-05-10T00:03:05.707Z,94564.00
2019-05-10T00:05:53.460Z,94568.00
2019-05-10T00:08:41.292Z,94577.00
2019-05-10T00:11:33.527Z,94578.00
2019-05-10T00:14:29.227Z,94573.00
2019-05-10T00:17:04.498Z,94571.00
2019-05-10T00:19:34.620Z,94568.00
2019-05-10T00:22:04.787Z,94586.00
2019-05-10T00:24:34.823Z,94581.00
2019-05-10T00:27:04.826Z,94591.00
2019-05-10T00:29:34.996Z,94583.00
2019-05-10T00:32:05.181Z,94586.00
2019-05-10T00:34:35.187Z,94592.00
2019-05-10T00:37:05.359Z,94595.00
2019-05-10T00:39:35.523Z,94595.00
2019-05-10T00:42:05.668Z,94588.00
2019-05-10T00:44:35.782Z,94601.00
2019-05-10T00:47:05.943Z,94602.00
2019-05-10T00:49:35.994Z,94604.00
2019-05-10T00:52:06.258Z,94596.00
2019-05-10T00:54:36.308Z,94610.00
2019-05-10T00:57:06.456Z,94607.00
2019-05-10T00:59:36.469Z,94607.00
2019-05-10T01:02:06.618Z,94604.00
2019-05-10T01:04:36.637Z,94616.00
2019-05-10T01:07:06.677Z,94614.00
2019-05-10T01:09:36.608Z,94618.00
2019-05-10T01:12:06.680Z,94625.00
2019-05-10T01:14:36.764Z,94619.00
2019-05-10T01:17:06.778Z,94620.00
2019-05-10T01:19:36.794Z,94635.00
2019-05-10T01:22:06.910Z,94620.00
2019-05-10T01:24:36.858Z,94635.00
2019-05-10T01:27:07.026Z,94634.00
2019-05-10T01:29:37.056Z,94638.00
2019-05-10T01:32:07.291Z,94632.00
2019-05-10T01:34:37.384Z,94633.00
2019-05-10T01:37:07.385Z,94629.00
2019-05-10T01:39:37.326Z,94631.00
2019-05-10T01:42:07.468Z,94628.00
2019-05-10T01:44:37.598Z,94635.00
2019-05-10T01:47:07.718Z,94639.00
2019-05-10T01:49:38.873Z,94650.00
2019-05-10T01:52:09.217Z,94649.00
2019-05-10T01:54:39.726Z,94658.00
2019-05-10T01:57:09.756Z,94659.00
2019-05-10T01:59:39.770Z,94666.00
2019-05-10T02:02:10.001Z,94668.00
2019-05-10T02:04:40.080Z,94665.00
2019-05-10T02:07:10.238Z,94677.00
2019-05-10T02:09:40.383Z,94674.00
2019-05-10T02:12:10.413Z,94670.00
2019-05-10T02:14:40.448Z,94678.00
2019-05-10T02:17:10.527Z,94679.00
2019-05-10T02:19:40.569Z,94676.00
2019-05-10T02:22:10.748Z,94677.00
2019-05-10T02:24:40.852Z,94694.00
2019-05-10T02:27:10.852Z,94681.00
2019-05-10T02:29:40.871Z,94684.00
2019-05-10T02:32:11.010Z,94682.00
2019-05-10T02:34:40.940Z,94683.00
2019-05-10T02:37:11.053Z,94685.00
2019-05-10T02:39:41.038Z,94675.00
2019-05-10T02:42:11.182Z,94695.00
2019-05-10T02:44:41.292Z,94683.00
2019-05-10T02:47:11.332Z,94695.00
2019-05-10T02:49:41.510Z,94700.00
2019-05-10T02:52:11.675Z,94703.00
2019-05-10T02:54:41.972Z,94703.00
2019-05-10T02:57:13.632Z,94705.00
2019-05-10T02:59:45.392Z,94692.00
2019-05-10T03:02:17.877Z,94710.00
2019-05-10T03:04:48.649Z,94705.00
2019-05-10T03:07:22.371Z,94704.00
2019-05-10T03:09:52.602Z,94709.00
2019-05-10T03:12:25.166Z,94701.00
2019-05-10T03:14:57.748Z,94711.00
2019-05-10T03:17:29.064Z,94705.00
2019-05-10T03:20:01.605Z,94704.00
2019-05-10T03:22:38.172Z,94707.00
2019-05-10T03:25:08.352Z,94713.00
2019-05-10T03:27:38.723Z,94709.00
2019-05-10T03:30:09.532Z,94709.00
2019-05-10T03:32:39.703Z,94703.00
2019-05-10T03:35:11.072Z,94701.00
2019-05-10T03:37:41.521Z,94703.00
2019-05-10T03:40:11.828Z,94703.00
2019-05-10T03:42:41.976Z,94706.00
2019-05-10T03:45:12.645Z,94708.00
2019-05-10T03:47:42.638Z,94705.00
2019-05-10T03:50:13.174Z,94692.00
2019-05-10T03:52:43.157Z,94699.00
2019-05-10T03:55:13.334Z,94695.00
2019-05-10T03:57:43.431Z,94707.00
2019-05-10T04:00:15.013Z,94699.00
2019-05-10T04:02:45.074Z,94709.00
2019-05-10T04:05:15.477Z,94720.00
2019-05-10T04:07:45.638Z,94720.00
2019-05-10T04:10:20.444Z,94728.00
2019-05-10T04:12:47.835Z,94732.00
2019-05-10T04:15:18.254Z,94733.00
2019-05-10T04:17:50.281Z,94735.00
2019-05-10T04:20:20.018Z,94734.00
2019-05-10T04:22:50.034Z,94735.00
2019-05-10T04:25:20.241Z,94730.00
2019-05-10T04:27:50.323Z,94736.00
2019-05-10T04:30:21.117Z,94734.00
2019-05-10T04:32:51.085Z,94736.00
2019-05-10T04:35:21.091Z,94742.00
2019-05-10T04:37:51.102Z,94755.00
2019-05-10T04:40:21.147Z,94743.00
2019-05-10T04:42:51.106Z,94748.00
2019-05-10T04:45:21.190Z,94754.00
2019-05-10T04:47:51.180Z,94746.00
2019-05-10T04:50:21.238Z,94746.00
2019-05-10T04:52:51.203Z,94746.00
2019-05-10T04:55:21.231Z,94757.00
2019-05-10T04:57:51.516Z,94756.00
2019-05-10T05:00:21.546Z,94751.00
2019-05-10T05:02:51.482Z,94749.00
2019-05-10T05:05:21.573Z,94754.00
2019-05-10T05:07:51.651Z,94762.00
2019-05-10T05:10:21.661Z,94760.00
2019-05-10T05:12:51.646Z,94758.00
2019-05-10T05:15:21.776Z,94762.00
2019-05-10T05:17:51.738Z,94753.00
2019-05-10T05:20:21.746Z,94765.00
2019-05-10T05:22:51.811Z,94756.00
2019-05-10T05:25:22.244Z,94762.00
2019-05-10T05:28:06.505Z,94766.00
2019-05-10T05:30:24.567Z,94776.00
2019-05-10T05:32:56.924Z,94772.00
2019-05-10T05:35:26.313Z,94772.00
2019-05-10T05:37:56.275Z,94771.00
2019-05-10T05:40:26.388Z,94773.00
2019-05-10T05:42:56.459Z,94787.00
2019-05-10T05:45:28.302Z,94782.00
2019-05-10T05:47:58.266Z,94777.00
2019-05-10T05:50:28.454Z,94787.00
2019-05-10T05:52:58.385Z,94789.00
2019-05-10T05:55:31.061Z,94797.00
2019-05-10T05:58:04.702Z,94797.00
2019-05-10T06:00:37.992Z,94805.00
2019-05-10T06:03:03.769Z,94802.00
2019-05-10T06:05:36.917Z,94789.00
2019-05-10T06:08:21.287Z,94801.00
2019-05-10T06:10:37.468Z,94810.00
2019-05-10T06:13:07.586Z,94808.00
2019-05-10T06:15:38.125Z,94807.00
2019-05-10T06:18:09.659Z,94810.00
2019-05-10T06:20:44.572Z,94817.00
2019-05-10T06:23:12.846Z,94812.00
2019-05-10T06:25:43.135Z,94813.00
2019-05-10T06:28:26.390Z,94820.00
2019-05-10T06:30:45.420Z,94820.00
2019-05-10T06:33:15.690Z,94833.00
2019-05-10T06:35:45.692Z,94824.00
2019-05-10T06:38:15.806Z,94829.00
2019-05-10T06:40:47.716Z,94829.00
2019-05-10T06:43:17.549Z,94843.00
2019-05-10T06:45:52.378Z,94836.00
2019-05-10T06:48:26.799Z,94840.00
2019-05-10T06:50:51.526Z,94839.00
2019-05-10T06:53:23.347Z,94847.00
2019-05-10T06:55:53.256Z,94846.00
2019-05-10T06:58:23.333Z,94855.00
2019-05-10T07:00:53.309Z,94852.00
2019-05-10T07:03:23.325Z,94852.00
2019-05-10T07:05:53.479Z,94853.00
2019-05-10T07:08:23.439Z,94863.00
2019-05-10T07:10:53.530Z,94869.00
2019-05-10T07:13:23.671Z,94866.00
2019-05-10T07:15:53.637Z,94861.00
2019-05-10T07:18:24.268Z,94862.00
2019-05-10T07:20:54.293Z,94857.00
2019-05-10T07:23:24.303Z,94866.00
2019-05-10T07:25:54.287Z,94857.00
2019-05-10T07:28:24.240Z,94873.00
2019-05-10T07:30:54.323Z,94876.00
2019-05-10T07:33:24.331Z,94875.00
2019-05-10T07:35:54.506Z,94874.00
2019-05-10T07:38:30.820Z,94868.00
2019-05-10T07:40:56.216Z,94879.00
2019-05-10T07:43:28.890Z,94873.00
2019-05-10T07:46:06.034Z,94879.00
2019-05-10T07:48:29.692Z,94904.00
2019-05-10T07:50:59.821Z,94916.00
2019-05-10T07:53:29.801Z,94916.00
2019-05-10T07:56:05.434Z,94917.00
2019-05-10T07:58:31.489Z,94922.00
2019-05-10T08:01:01.483Z,94916.00
2019-05-10T08:03:35.664Z,94923.00
2019-05-10T08:06:03.281Z,94924.00
2019-05-10T08:08:33.209Z,94919.00
2019-05-10T08:11:03.290Z,94928.00
2019-05-10T08:13:33.244Z,94925.00
2019-05-10T08:16:05.434Z,94925.00
2019-05-10T08:18:34.970Z,94918.00
2019-05-10T08:21:20.475Z,94925.00
2019-05-10T08:23:36.846Z,94927.00
2019-05-10T08:26:10.960Z,94925.00
2019-05-10T08:28:43.858Z,94921.00
2019-05-10T08:31:12.390Z,94921.00
2019-05-10T08:33:44.165Z,94924.00
2019-05-10T08:36:14.463Z,94914.00
2019-05-10T08:38:49.685Z,94917.00
2019-05-10T08:41:18.372Z,94914.00
2019-05-10T08:43:48.128Z,94913.00
2019-05-10T08:46:19.425Z,94912.00
2019-05-10T08:48:53.173Z,94909.00
2019-05-10T08:51:22.784Z,94905.00
2019-05-10T08:53:57.991Z,94914.00
2019-05-10T08:56:24.808Z,94914.00
2019-05-10T08:58:54.935Z,94916.00
2019-05-10T09:01:30.123Z,94919.00
2019-05-10T09:04:00.865Z,94910.00
2019-05-10T09:06:28.810Z,94910.00
2019-05-10T09:09:05.995Z,94914.00
2019-05-10T09:11:32.786Z,94911.00
2019-05-10T09:14:03.166Z,94912.00
2019-05-10T09:16:39.251Z,94921.00
2019-05-10T09:19:05.621Z,94915.00
2019-05-10T09:21:35.844Z,94923.00
2019-05-10T09:24:07.527Z,94917.00
2019-05-10T09:26:37.665Z,94914.00
2019-05-10T09:29:07.925Z,94913.00
2019-05-10T09:31:39.401Z,94909.00
2019-05-10T09:34:12.126Z,94910.00
2019-05-10T09:36:44.874Z,94905.00
2019-05-10T09:39:17.606Z,94892.00
2019-05-10T09:41:45.114Z,94900.00
2019-05-10T09:44:15.223Z,94894.00
2019-05-10T09:46:45.314Z,94902.00
2019-05-10T09:49:18.391Z,94905.00
2019-05-10T09:51:47.245Z,94913.00
2019-05-10T09:54:18.237Z,94911.00
2019-05-10T09:56:51.967Z,94910.00
2019-05-10T09:59:20.351Z,94904.00
2019-05-10T10:01:50.346Z,94903.00
2019-05-10T10:04:20.604Z,94910.00
2019-05-10T10:06:52.596Z,94917.00
2019-05-10T10:09:24.687Z,94921.00
2019-05-10T10:12:00.981Z,94924.00
2019-05-10T10:14:28.372Z,94931.00
2019-05-10T10:17:02.980Z,94949.00
2019-05-10T10:19:30.758Z,94953.00
2019-05-10T10:22:05.715Z,94940.00
2019-05-10T10:24:32.967Z,94933.00
2019-05-10T10:27:02.900Z,94926.00
2019-05-10T10:29:38.279Z,94933.00
2019-05-10T10:32:07.939Z,94935.00
2019-05-10T10:34:42.840Z,94951.00
2019-05-10T10:37:14.533Z,94933.00
2019-05-10T10:39:42.706Z,94947.00
2019-05-10T10:42:13.364Z,94935.00
2019-05-10T10:44:43.551Z,94941.00
2019-05-10T10:47:13.605Z,94946.00
2019-05-10T10:49:43.967Z,94949.00
2019-05-10T10:52:14.149Z,94953.00
2019-05-10T10:54:44.192Z,94940.00
2019-05-10T10:57:14.217Z,94946.00
2019-05-10T10:59:47.468Z,94939.00
2019-05-10T11:02:32.063Z,94948.00
2019-05-10T11:04:49.349Z,94949.00
2019-05-10T11:07:19.459Z,94950.00
2019-05-10T11:09:53.717Z,94953.00
2019-05-10T11:12:24.032Z,94950.00
2019-05-10T11:14:53.829Z,94938.00
2019-05-10T11:17:24.334Z,94929.00
2019-05-10T11:19:54.512Z,94945.00
2019-05-10T11:22:27.316Z,94934.00
2019-05-10T11:25:00.694Z,94941.00
2019-05-10T11:27:30.948Z,94950.00
2019-05-10T11:30:01.072Z,94948.00
2019-05-10T11:32:31.676Z,94955.00
2019-05-10T11:35:05.445Z,94961.00
2019-05-10T11:37:36.422Z,94964.00
2019-05-10T11:40:07.650Z,94960.00
2019-05-10T11:42:43.796Z,94963.00
2019-05-10T11:45:11.088Z,94967.00
2019-05-10T11:47:41.763Z,94974.00
2019-05-10T11:50:26.598Z,94987.00
2019-05-10T11:52:44.519Z,94974.00
2019-05-10T11:55:14.890Z,94979.00
2019-05-10T11:58:00.751Z,94978.00
2019-05-10T12:00:28.030Z,94968.00
2019-05-10T12:03:11.350Z,94968.00
2019-05-10T12:07:55.065Z,94970.00
2019-05-10T12:10:26.072Z,94966.00
2019-05-10T12:13:08.669Z,94964.00
2019-05-10T12:15:31.475Z,94968.00
2019-05-10T12:18:04.542Z,94977.00
2019-05-10T12:23:04.159Z,94978.00
2019-05-10T12:25:51.088Z,94982.00
2019-05-10T12:26:27.897Z,94973.00
2019-05-10T12:26:49.191Z,94974.00
2019-05-10T12:28:06.256Z,94987.00
2019-05-10T12:30:38.297Z,94988.00
2019-05-10T12:33:12.451Z,94989.00
2019-05-10T12:35:47.133Z,94995.00
2019-05-10T12:38:12.729Z,94995.00
2019-05-10T12:40:45.747Z,94994.00
2019-05-10T12:43:14.409Z,94996.00
2019-05-10T12:45:44.744Z,94994.00
2019-05-10T12:48:14.767Z,94995.00
2019-05-10T12:50:44.817Z,94990.00
2019-05-10T12:53:18.390Z,94990.00
2019-05-10T12:55:46.933Z,94998.00
2019-05-10T12:58:17.061Z,95001.00
2019-05-10T13:00:52.681Z,94995.00
2019-05-10T13:03:19.912Z,95000.00
2019-05-10T13:05:52.894Z,95010.00
2019-05-10T13:08:22.644Z,95007.00
2019-05-10T13:10:52.717Z,95013.00
2019-05-10T13:13:25.539Z,95011.00
2019-05-10T13:15:54.938Z,95003.00
2019-05-10T13:18:48.160Z,95007.00
2019-05-10T13:20:58.516Z,94994.00
2019-05-10T13:23:28.659Z,94990.00
2019-05-10T13:25:58.651Z,94992.00
2019-05-10T13:28:28.742Z,95005.00
2019-05-10T13:30:59.794Z,94989.00
2019-05-10T13:33:40.922Z,94987.00
2019-05-10T13:36:03.432Z,94981.00
2019-05-10T13:38:36.909Z,94976.00
2019-05-10T13:41:05.238Z,94981.00
2019-05-10T13:43:36.035Z,94979.00
2019-05-10T13:46:06.189Z,94969.00
2019-05-10T13:48:36.692Z,94974.00
2019-05-10T13:51:06.756Z,94967.00
2019-05-10T13:53:36.808Z,94969.00
2019-05-10T13:56:07.031Z,94972.00
2019-05-10T13:58:37.165Z,94966.00
2019-05-10T14:01:13.038Z,94968.00
2019-05-10T14:03:45.236Z,94971.00
2019-05-10T14:06:10.888Z,94971.00
2019-05-10T14:08:42.773Z,94960.00
2019-05-10T14:11:12.647Z,94959.00
2019-05-10T14:13:43.252Z,94972.00
2019-05-10T14:16:18.081Z,94953.00
2019-05-10T14:18:45.142Z,94957.00
2019-05-10T14:21:15.175Z,94959.00
2019-05-10T14:23:45.206Z,94960.00
2019-05-10T14:26:18.228Z,94955.00
2019-05-10T14:28:52.272Z,94954.00
2019-05-10T14:31:18.871Z,94954.00
2019-05-10T14:34:14.112Z,94951.00
2019-05-10T14:36:20.685Z,94958.00
2019-05-10T14:38:53.922Z,94958.00
2019-05-10T14:41:22.448Z,94960.00
2019-05-10T14:43:52.407Z,94942.00
2019-05-10T14:46:22.411Z,94950.00
2019-05-10T14:48:52.352Z,94954.00
2019-05-10T14:51:22.284Z,94957.00
2019-05-10T14:53:52.224Z,94956.00
2019-05-10T14:56:22.241Z,94955.00
2019-05-10T14:58:52.260Z,94964.00
2019-05-10T15:01:22.325Z,94952.00
2019-05-10T15:03:52.365Z,94955.00
2019-05-10T15:06:22.441Z,94962.00
2019-05-10T15:08:52.387Z,94958.00
2019-05-10T15:11:26.591Z,94959.00
2019-05-10T15:13:54.056Z,94941.00
2019-05-10T15:16:27.096Z,94942.00
2019-05-10T15:18:55.781Z,94948.00
2019-05-10T15:21:25.730Z,94950.00
2019-05-10T15:24:00.818Z,94941.00
2019-05-10T15:26:27.555Z,94938.00
2019-05-10T15:28:57.642Z,94953.00
2019-05-10T15:31:29.122Z,94953.00
2019-05-10T15:34:04.153Z,94964.00
2019-05-10T15:36:31.752Z,94958.00
2019-05-10T15:39:01.856Z,94963.00
2019-05-10T15:41:32.027Z,94955.00
2019-05-10T15:44:02.203Z,94950.00
2019-05-10T15:46:38.859Z,94963.00
2019-05-10T15:49:04.003Z,94974.00
2019-05-10T15:51:36.556Z,94973.00
2019-05-10T15:54:07.489Z,94976.00
2019-05-10T15:56:41.484Z,94984.00
2019-05-10T15:59:12.772Z,94983.00
2019-05-10T16:01:45.177Z,94982.00
2019-05-10T16:04:13.198Z,94984.00
2019-05-10T16:06:43.217Z,94990.00
2019-05-10T16:09:17.314Z,94978.00
2019-05-10T16:11:45.093Z,94966.00
2019-05-10T16:14:15.018Z,94977.00
2019-05-10T16:16:44.954Z,94980.00
2019-05-10T16:19:18.518Z,94969.00
2019-05-10T16:21:51.870Z,94971.00
2019-05-10T16:24:25.340Z,94967.00
2019-05-10T16:26:54.597Z,94972.00
2019-05-10T16:29:22.013Z,94977.00
2019-05-10T16:31:52.141Z,94972.00
2019-05-10T16:34:26.578Z,94977.00
2019-05-10T16:36:53.871Z,94969.00
2019-05-10T16:39:23.920Z,94979.00
2019-05-10T16:41:53.898Z,94975.00
2019-05-10T16:44:23.907Z,94986.00
2019-05-10T16:46:53.844Z,94976.00
2019-05-10T16:49:24.247Z,94972.00
2019-05-10T16:51:54.309Z,94972.00
2019-05-10T16:54:27.073Z,94974.00
2019-05-10T16:57:00.089Z,94974.00
2019-05-10T16:59:29.637Z,94984.00
2019-05-10T17:02:04.694Z,94987.00
2019-05-10T17:04:37.286Z,94982.00
2019-05-10T17:07:03.006Z,94980.00
2019-05-10T17:09:33.025Z,94976.00
2019-05-10T17:12:03.182Z,94982.00
2019-05-10T17:14:33.270Z,94987.00
2019-05-10T17:17:03.434Z,94981.00
2019-05-10T17:19:35.947Z,94985.00
2019-05-10T17:22:05.521Z,94990.00
2019-05-10T17:24:35.521Z,94992.00
2019-05-10T17:27:05.648Z,94979.00
2019-05-10T17:29:35.586Z,94985.00
2019-05-10T17:32:05.739Z,94989.00
2019-05-10T17:34:35.658Z,94987.00
2019-05-10T17:37:05.748Z,94995.00
2019-05-10T17:39:35.768Z,94983.00
2019-05-10T17:42:05.920Z,94993.00
2019-05-10T17:44:35.940Z,94988.00
2019-05-10T17:47:05.967Z,94991.00
2019-05-10T17:49:35.965Z,94990.00
2019-05-10T17:52:06.057Z,94986.00
2019-05-10T17:54:39.135Z,94989.00
2019-05-10T17:57:10.838Z,94987.00
2019-05-10T17:59:39.578Z,94990.00
2019-05-10T18:02:09.748Z,94988.00
2019-05-10T18:04:39.955Z,94988.00
2019-05-10T18:07:09.995Z,94985.00
2019-05-10T18:09:40.085Z,94986.00
2019-05-10T18:12:10.143Z,94981.00
2019-05-10T18:14:40.224Z,94996.00
2019-05-10T18:17:10.929Z,95000.00
2019-05-10T18:19:40.921Z,94998.00
2019-05-10T18:22:10.979Z,95006.00
2019-05-10T18:24:42.260Z,95001.00
2019-05-10T18:27:12.615Z,95013.00
2019-05-10T18:29:42.780Z,95012.00
2019-05-10T18:32:12.871Z,95008.00
2019-05-10T18:34:42.808Z,95015.00
2019-05-10T18:37:15.824Z,95014.00
2019-05-10T18:39:47.310Z,95029.00
2019-05-10T18:42:18.695Z,95016.00
2019-05-10T18:44:51.891Z,95023.00
2019-05-10T18:47:19.920Z,95023.00
2019-05-10T18:49:50.034Z,95031.00
2019-05-10T18:52:20.253Z,95038.00
2019-05-10T18:54:50.346Z,95038.00
2019-05-10T18:57:20.264Z,95024.00
2019-05-10T18:59:50.257Z,95028.00
2019-05-10T19:02:20.267Z,95026.00
2019-05-10T19:04:52.127Z,95032.00
2019-05-10T19:07:22.122Z,95038.00
2019-05-10T19:09:52.146Z,95043.00
2019-05-10T19:12:23.370Z,95046.00
2019-05-10T19:14:54.598Z,95052.00
2019-05-10T19:17:25.486Z,95057.00
2019-05-10T19:19:55.511Z,95048.00
2019-05-10T19:22:25.633Z,95053.00
2019-05-10T19:24:57.024Z,95060.00
2019-05-10T19:27:27.216Z,95059.00
2019-05-10T19:29:57.292Z,95062.00
2019-05-10T19:32:27.257Z,95060.00
2019-05-10T19:34:58.882Z,95060.00
2019-05-10T19:37:34.091Z,95062.00
2019-05-10T19:40:01.025Z,95070.00
2019-05-10T19:42:31.881Z,95070.00
2019-05-10T19:45:01.955Z,95062.00
2019-05-10T19:47:31.997Z,95065.00
2019-05-10T19:50:02.033Z,95055.00
2019-05-10T19:52:31.990Z,95056.00
2019-05-10T19:55:02.130Z,95063.00
2019-05-10T19:57:32.183Z,95055.00
2019-05-10T20:00:02.376Z,95057.00
2019-05-10T20:02:32.440Z,95051.00
2019-05-10T20:05:03.071Z,95058.00
2019-05-10T20:07:45.325Z,95043.00
2019-05-10T20:10:07.821Z,95054.00
2019-05-10T20:12:37.429Z,95048.00
2019-05-10T20:15:08.012Z,95038.00
2019-05-10T20:17:38.850Z,95035.00
2019-05-10T20:20:09.676Z,95033.00
2019-05-10T20:22:39.721Z,95047.00
2019-05-10T20:25:10.407Z,95063.00
2019-05-10T20:27:40.408Z,95053.00
2019-05-10T20:30:11.751Z,95041.00
2019-05-10T20:32:41.693Z,95055.00
2019-05-10T20:35:12.176Z,95039.00
2019-05-10T20:37:42.197Z,95039.00
2019-05-10T20:40:12.768Z,95042.00
2019-05-10T20:42:42.700Z,95031.00
2019-05-10T20:45:13.175Z,95034.00
2019-05-10T20:47:43.088Z,95026.00
2019-05-10T20:50:13.560Z,95025.00
2019-05-10T20:52:43.547Z,95027.00
2019-05-10T20:55:14.243Z,95018.00
2019-05-10T20:57:44.238Z,95012.00
2019-05-10T21:00:14.591Z,95020.00
2019-05-10T21:02:44.592Z,95007.00
2019-05-10T21:05:14.866Z,95007.00
2019-05-10T21:07:44.899Z,95004.00
2019-05-10T21:10:15.375Z,95010.00
2019-05-10T21:12:45.368Z,95010.00
2019-05-10T21:15:15.518Z,95009.00
2019-05-10T21:17:45.513Z,95010.00
2019-05-10T21:20:15.797Z,95004.00
2019-05-10T21:22:45.947Z,95002.00
2019-05-10T21:25:16.235Z,95003.00
2019-05-10T21:27:46.174Z,95001.00
2019-05-10T21:30:16.804Z,94993.00
2019-05-10T21:32:46.749Z,95012.00
2019-05-10T21:35:16.915Z,95000.00
2019-05-10T21:37:46.928Z,95009.00
2019-05-10T21:40:17.172Z,95003.00
2019-05-10T21:42:47.250Z,95011.00
2019-05-10T21:45:17.292Z,95006.00
2019-05-10T21:47:51.519Z,95000.00
2019-05-10T21:50:19.744Z,95005.00
2019-05-10T21:52:49.806Z,95003.00
2019-05-10T21:55:19.824Z,94996.00
2019-05-10T21:57:49.903Z,94998.00
2019-05-10T22:00:22.746Z,94991.00
2019-05-10T22:02:52.859Z,94991.00
2019-05-10T22:05:23.209Z,94985.00
2019-05-10T22:07:53.238Z,94988.00
2019-05-10T22:10:23.378Z,94991.00
2019-05-10T22:12:53.486Z,95006.00
2019-05-10T22:15:23.550Z,94999.00
2019-05-10T22:17:53.593Z,94998.00
2019-05-10T22:20:23.714Z,95001.00
2019-05-10T22:22:53.715Z,95008.00
2019-05-10T22:25:23.881Z,94994.00
2019-05-10T22:27:53.935Z,94994.00
2019-05-10T22:30:24.128Z,94994.00
2019-05-10T22:32:54.162Z,94989.00
2019-05-10T22:35:24.333Z,94988.00
2019-05-10T22:37:54.300Z,94987.00
2019-05-10T22:40:24.528Z,94990.00
2019-05-10T22:42:54.668Z,94989.00
2019-05-10T22:45:24.895Z,94992.00
2019-05-10T22:47:54.957Z,94984.00
2019-05-10T22:50:25.035Z,94986.00
2019-05-10T22:52:54.999Z,94990.00
2019-05-10T22:55:44.325Z,94978.00
2019-05-10T22:58:14.284Z,94980.00
2019-05-10T23:00:44.535Z,94974.00
2019-05-10T23:03:14.494Z,94971.00
2019-05-10T23:05:44.514Z,94976.00
2019-05-10T23:08:14.482Z,94977.00
2019-05-10T23:10:44.612Z,94977.00
2019-05-10T23:13:14.718Z,94974.00
2019-05-10T23:15:44.843Z,94987.00
2019-05-10T23:18:14.906Z,94979.00
2019-05-10T23:20:44.914Z,94974.00
2019-05-10T23:23:14.976Z,94976.00
2019-05-10T23:25:45.078Z,94982.00
2019-05-10T23:28:15.049Z,94984.00
2019-05-10T23:30:45.064Z,94988.00
2019-05-10T23:33:15.189Z,94993.00
2019-05-10T23:35:45.153Z,94985.00
2019-05-10T23:38:15.267Z,94993.00
2019-05-10T23:40:45.387Z,94987.00
2019-05-10T23:43:15.445Z,94990.00
2019-05-10T23:45:45.497Z,94990.00
2019-05-10T23:48:15.538Z,94989.00
2019-05-10T23:50:45.590Z,94984.00
2019-05-10T23:53:15.621Z,94978.00
2019-05-10T23:55:45.631Z,94975.00
2019-05-10T23:58:15.674Z,94975.00
